Westchase, Florida
Current Conditions -  °F | °C
As of 6:53 AM on Sunday 25 Jan 2015 (Local Time) from KTPA Reporting Station
Few Clouds Few Clouds  
Wind Chill: 47°   Ceiling: Unl
Heat Index: 49°   Visibility: 10mi
Dew Point: 41°   Wind: 6mph
Humidity: 74%   Direction: 20°NNE
Pressure: 30.11"   Gusts: NA
Location:  28.0595°N, 82.6106°W
Report Text: KTPA 251153Z 02005KT 10SM FEW250 09/05 A3011 RMK AO2 SLP196 T00940050 10106 20078 53020
Loading
Personal Weather Stations






























Interactive Weather Map New forecast layout! Learn more

10-Day Weather Forecast

Advertisements
Track Severe Weather on mobile